| time (UTC) | temp F | wind direction | speed knots | gust knots | rain 1hr in | rain 24hr in | rain mn in | humidity % | barometer mb |
| 20260505011410 | 75 | 232 | 6.1 | 11.3 | 0.00 | 0.00 | 0.00 | 57 | 1002.6 |
| 20260505010436 | 76 | 245 | 6.1 | 9.6 | 0.00 | 0.00 | 0.00 | 56 | 1002.7 |
| 20260505005417 | 76 | 243 | 4.3 | 9.6 | 0.00 | 0.00 | 0.00 | 55 | 1002.7 |
| 20260505004445 | 76 | 249 | 7.0 | 12.2 | 0.00 | 0.00 | 0.00 | 54 | 1002.7 |
| 20260505002437 | 77 | 251 | 7.0 | 12.2 | 0.00 | 0.00 | 0.00 | 53 | 1002.5 |
| 20260505001419 | 77 | 252 | 8.7 | 13.0 | 0.00 | 0.00 | 0.00 | 52 | 1002.5 |
| 20260505000437 | 78 | 246 | 7.0 | 11.3 | 0.00 | 0.00 | 0.00 | 52 | 1002.4 |
| 20260504235414 | 78 | 253 | 9.6 | 15.6 | 0.00 | 0.00 | 0.00 | 51 | 1002.5 |
| 20260504234412 | 80 | 264 | 12.2 | 15.6 | 0.00 | 0.00 | 0.00 | 49 | 1002.4 |
| 20260504233404 | 80 | 263 | 10.4 | 17.4 | 0.00 | 0.00 | 0.00 | 49 | 1002.4 |
| 20260504232403 | 80 | 258 | 10.4 | 14.8 | 0.00 | 0.00 | 0.00 | 49 | 1002.6 |
| 20260504231402 | 80 | 260 | 12.2 | 17.4 | 0.00 | 0.00 | 0.00 | 49 | 1002.7 |
| 20260504230444 | 80 | 263 | 11.3 | 20.0 | 0.00 | 0.00 | 0.00 | 50 | 1002.8 |
| 20260504225414 | 80 | 262 | 13.0 | 19.1 | 0.00 | 0.00 | 0.00 | 49 | 1002.8 |
| 20260504223404 | 80 | 252 | 13.0 | 19.1 | 0.00 | 0.00 | 0.00 | 48 | 1002.7 |
| 20260504222400 | 80 | 261 | 12.2 | 19.1 | 0.00 | 0.00 | 0.00 | 50 | 1002.9 |
| 20260504221443 | 80 | 261 | 10.4 | 19.1 | 0.00 | 0.00 | 0.00 | 49 | 1002.8 |
| 20260504215441 | 80 | 253 | 12.2 | 18.2 | 0.00 | 0.00 | 0.00 | 50 | 1002.9 |
| 20260504214408 | 80 | 287 | 12.2 | 20.9 | 0.00 | 0.00 | 0.00 | 50 | 1002.9 |
| 20260504213403 | 79 | 255 | 13.9 | 20.9 | 0.00 | 0.00 | 0.00 | 49 | 1003.0 |
| 20260504212438 | 80 | 247 | 12.2 | 20.9 | 0.00 | 0.00 | 0.00 | 48 | 1002.9 |
| 20260504211441 | 80 | 243 | 13.0 | 18.2 | 0.00 | 0.00 | 0.00 | 49 | 1002.9 |
| 20260504210433 | 79 | 239 | 12.2 | 20.0 | 0.00 | 0.00 | 0.00 | 49 | 1002.9 |
| 20260504205401 | 79 | 269 | 11.3 | 20.9 | 0.00 | 0.00 | 0.00 | 50 | 1003.0 |
| 20260504203429 | 79 | 253 | 11.3 | 19.1 | 0.00 | 0.00 | 0.00 | 49 | 1003.2 |
| 20260504202403 | 78 | 251 | 13.0 | 22.6 | 0.00 | 0.00 | 0.00 | 50 | 1003.3 |
| 20260504200439 | 79 | 246 | 13.0 | 20.9 | 0.00 | 0.00 | 0.00 | 52 | 1003.5 |
| 20260504195426 | 78 | 243 | 13.9 | 18.2 | 0.00 | 0.00 | 0.00 | 51 | 1003.6 |
| 20260504194422 | 78 | 277 | 11.3 | 15.6 | 0.00 | 0.00 | 0.00 | 56 | 1003.8 |
| 20260504193422 | 77 | 255 | 12.2 | 17.4 | 0.00 | 0.00 | 0.00 | 51 | 1003.9 |
| 20260504192425 | 76 | 247 | 10.4 | 17.4 | 0.00 | 0.00 | 0.00 | 53 | 1003.9 |
| 20260504190400 | 76 | 236 | 10.4 | 20.0 | 0.00 | 0.00 | 0.00 | 52 | 1004.0 |
| 20260504184438 | 76 | 252 | 13.0 | 19.1 | 0.00 | 0.00 | 0.00 | 52 | 1003.9 |
| 20260504183435 | 76 | 254 | 10.4 | 15.6 | 0.00 | 0.00 | 0.00 | 54 | 1004.0 |
| 20260504182446 | 75 | 254 | 10.4 | 17.4 | 0.00 | 0.00 | 0.00 | 55 | 1004.0 |
| 20260504180411 | 74 | 263 | 11.3 | 17.4 | 0.00 | 0.00 | 0.00 | 53 | 1004.1 |
| 20260504175434 | 75 | 246 | 8.7 | 17.4 | 0.00 | 0.00 | 0.00 | 55 | 1004.2 |
| 20260504174436 | 74 | 248 | 10.4 | 15.6 | 0.00 | 0.00 | 0.00 | 54 | 1004.2 |
| 20260504173423 | 74 | 255 | 7.0 | 17.4 | 0.00 | 0.00 | 0.00 | 53 | 1004.2 |
| 20260504171420 | 74 | 256 | 13.0 | 18.2 | 0.00 | 0.00 | 0.00 | 54 | 1004.6 |
| 20260504170425 | 74 | 257 | 13.0 | 20.9 | 0.00 | 0.00 | 0.00 | 55 | 1004.8 |
| 20260504160434 | 71 | 246 | 13.0 | 21.7 | 0.00 | 0.00 | 0.00 | 56 | 1005.1 |
| 20260504150425 | 69 | 256 | 13.0 | 23.5 | 0.00 | 0.00 | 0.00 | 59 | 1005.2 |
| 20260504140432 | 68 | 241 | 11.3 | 16.5 | 0.00 | 0.00 | 0.00 | 59 | 1005.8 |
| 20260504130406 | 66 | 225 | 8.7 | 14.8 | 0.00 | 0.00 | 0.00 | 60 | 1006.2 |
| 20260504110402 | 61 | 217 | 5.2 | 8.7 | 0.00 | 0.00 | 0.00 | 74 | 1006.6 |
| 20260504100414 | 61 | 226 | 4.3 | 7.0 | 0.00 | 0.00 | 0.00 | 74 | 1007.6 |
| 20260504080406 | 58 | 147 | 3.5 | 4.3 | 0.00 | 0.00 | 0.00 | 82 | 1007.9 |
| 20260504050428 | 54 | 5 | 0.0 | 0.0 | 0.00 | 0.00 | 0.00 | 86 | 1009.3 |
| 20260504045415 | 54 | 5 | 0.0 | 0.0 | 0.00 | 0.00 | 0.00 | 86 | 1009.3 |
| 20260504044424 | 54 | 5 | 0.0 | 0.0 | 0.00 | 0.00 | 0.00 | 86 | 1009.5 |
| 20260504043407 | 54 | 5 | 0.0 | 0.0 | 0.00 | 0.00 | 0.00 | 85 | 1009.6 |
| 20260504042438 | 55 | 5 | 0.0 | 0.0 | 0.00 | 0.00 | 0.00 | 85 | 1009.7 |
| 20260504041444 | 55 | 5 | 0.0 | 0.0 | 0.00 | 0.00 | 0.00 | 84 | 1009.8 |
| 20260504040447 | 56 | 5 | 0.0 | 0.0 | 0.00 | 0.00 | 0.00 | 83 | 1009.8 |
| 20260504035410 | 56 | 5 | 0.0 | 0.0 | 0.00 | 0.00 | 0.00 | 82 | 1009.8 |
| 20260504034412 | 57 | 5 | 0.0 | 0.0 | 0.00 | 0.00 | 0.00 | 81 | 1009.9 |
| 20260504033402 | 57 | 5 | 0.0 | 0.0 | 0.00 | 0.00 | 0.00 | 80 | 1010.0 |
| 20260504032413 | 58 | 5 | 0.0 | 0.0 | 0.00 | 0.00 | 0.00 | 80 | 1010.1 |
| 20260504031446 | 58 | 5 | 0.0 | 0.0 | 0.00 | 0.00 | 0.00 | 79 | 1010.1 |
| 20260504030444 | 58 | 5 | 0.0 | 0.0 | 0.00 | 0.00 | 0.00 | 79 | 1010.0 |
| 20260504025430 | 58 | 5 | 0.0 | 0.0 | 0.00 | 0.00 | 0.00 | 78 | 1010.1 |
| 20260504024430 | 59 | 5 | 0.0 | 0.0 | 0.00 | 0.00 | 0.00 | 77 | 1010.1 |
| 20260504023408 | 59 | 5 | 0.0 | 0.0 | 0.00 | 0.00 | 0.00 | 77 | 1010.0 |
| 20260504022426 | 60 | 5 | 0.0 | 0.0 | 0.00 | 0.00 | 0.00 | 75 | 1009.8 |
| 20260504015407 | 62 | 5 | 0.0 | 0.0 | 0.00 | 0.00 | 0.00 | 72 | 1009.8 |
| 20260504013404 | 65 | 5 | 0.0 | 0.0 | 0.00 | 0.00 | 0.00 | 67 | 1009.7 |
| 20260504012403 | 66 | 356 | 0.0 | 0.0 | 0.00 | 0.00 | 0.00 | 65 | 1009.8 |